createdAt,value
2018-09-14T00:00:10.309Z,12.60
2018-09-14T00:02:39.709Z,12.60
2018-09-14T00:05:09.557Z,12.60
2018-09-14T00:07:38.998Z,12.60
2018-09-14T00:10:08.576Z,12.60
2018-09-14T00:12:38.461Z,12.60
2018-09-14T00:15:07.874Z,12.50
2018-09-14T00:17:37.227Z,12.50
2018-09-14T00:20:07.030Z,12.50
2018-09-14T00:22:36.668Z,12.50
2018-09-14T00:25:06.226Z,12.50
2018-09-14T00:27:35.977Z,12.50
2018-09-14T00:30:05.361Z,12.50
2018-09-14T00:32:34.921Z,12.50
2018-09-14T00:35:04.893Z,12.50
2018-09-14T00:37:35.223Z,12.50
2018-09-14T00:40:05.037Z,12.50
2018-09-14T00:42:34.741Z,12.50
2018-09-14T00:45:04.380Z,12.50
2018-09-14T00:47:33.850Z,12.50
2018-09-14T00:50:03.542Z,12.50
2018-09-14T00:52:32.899Z,12.50
2018-09-14T00:55:02.319Z,12.50
2018-09-14T00:57:32.092Z,12.50
2018-09-14T01:00:01.476Z,12.50
2018-09-14T01:02:30.898Z,12.50
2018-09-14T01:05:00.968Z,12.50
2018-09-14T01:07:30.321Z,12.50
2018-09-14T01:09:59.717Z,12.50
2018-09-14T01:12:31.295Z,12.40
2018-09-14T01:15:00.706Z,12.40
2018-09-14T01:17:30.179Z,12.40
2018-09-14T01:20:00.183Z,12.40
2018-09-14T01:22:29.600Z,12.40
2018-09-14T01:24:59.523Z,12.40
2018-09-14T01:27:29.831Z,12.40
2018-09-14T01:29:59.537Z,12.40
2018-09-14T01:32:29.668Z,12.40
2018-09-14T01:34:59.730Z,12.30
2018-09-14T01:37:29.398Z,12.30
2018-09-14T01:39:59.820Z,12.30
2018-09-14T01:42:29.772Z,12.30
2018-09-14T01:45:00.357Z,12.30
2018-09-14T01:47:30.031Z,12.30
2018-09-14T01:49:59.758Z,12.30
2018-09-14T01:52:30.431Z,12.30
2018-09-14T01:54:59.807Z,12.30
2018-09-14T01:57:29.809Z,12.30
2018-09-14T01:59:59.429Z,12.30
2018-09-14T02:02:28.914Z,12.30
2018-09-14T02:04:59.084Z,12.20
2018-09-14T02:07:28.915Z,12.20
2018-09-14T02:09:58.655Z,12.20
2018-09-14T02:12:29.002Z,12.30
2018-09-14T02:14:58.648Z,12.20
2018-09-14T02:17:28.479Z,12.30
2018-09-14T02:19:58.650Z,12.20
2018-09-14T02:22:29.291Z,12.20
2018-09-14T02:24:58.942Z,12.30
2018-09-14T02:27:28.996Z,12.20
2018-09-14T02:29:58.718Z,12.20
2018-09-14T02:32:28.465Z,12.20
2018-09-14T02:34:58.501Z,12.20
2018-09-14T02:37:28.181Z,12.20
2018-09-14T02:39:57.875Z,12.20
2018-09-14T02:42:28.266Z,12.20
2018-09-14T02:44:58.126Z,12.20
2018-09-14T02:47:28.045Z,12.30
2018-09-14T02:49:58.251Z,12.20
2018-09-14T02:52:27.898Z,12.20
2018-09-14T02:54:57.720Z,12.20
2018-09-14T02:57:27.821Z,12.20
2018-09-14T02:59:57.999Z,12.20
2018-09-14T03:02:27.842Z,12.20
2018-09-14T03:04:58.564Z,12.20
2018-09-14T03:07:28.480Z,12.20
2018-09-14T03:09:58.190Z,12.20
2018-09-14T03:12:28.367Z,12.20
2018-09-14T03:14:58.112Z,12.20
2018-09-14T03:17:27.818Z,12.20
2018-09-14T03:19:57.982Z,12.20
2018-09-14T03:22:28.567Z,12.20
2018-09-14T03:24:57.997Z,12.20
2018-09-14T03:27:28.295Z,12.10
2018-09-14T03:29:58.052Z,12.10
2018-09-14T03:32:27.946Z,12.10
2018-09-14T03:34:58.330Z,12.00
2018-09-14T03:37:28.000Z,12.10
2018-09-14T03:39:57.982Z,12.10
2018-09-14T03:42:28.045Z,12.00
2018-09-14T03:44:58.344Z,12.10
2018-09-14T03:47:27.938Z,12.10
2018-09-14T03:49:58.253Z,12.10
2018-09-14T03:52:29.877Z,12.10
2018-09-14T03:55:00.117Z,12.10
2018-09-14T03:57:30.057Z,12.10
2018-09-14T03:59:59.779Z,12.00
2018-09-14T04:02:29.857Z,12.00
2018-09-14T04:04:59.500Z,12.00
2018-09-14T04:07:29.190Z,12.00
2018-09-14T04:09:59.314Z,12.10
2018-09-14T04:12:29.856Z,12.10
2018-09-14T04:14:59.394Z,12.10
2018-09-14T04:17:29.945Z,12.10
2018-09-14T04:19:59.759Z,12.10
2018-09-14T04:22:30.597Z,12.10
2018-09-14T04:25:00.208Z,12.10
2018-09-14T04:27:29.676Z,12.10
2018-09-14T04:29:59.790Z,12.00
2018-09-14T04:32:29.251Z,12.00
2018-09-14T04:34:58.865Z,12.00
2018-09-14T04:37:29.229Z,12.00
2018-09-14T04:39:59.189Z,12.00
2018-09-14T04:42:29.806Z,12.00
2018-09-14T04:45:00.478Z,12.00
2018-09-14T04:47:30.016Z,12.00
2018-09-14T04:49:59.455Z,12.00
2018-09-14T04:52:29.763Z,12.00
2018-09-14T04:54:59.386Z,12.00
2018-09-14T04:57:28.952Z,12.00
2018-09-14T04:59:59.100Z,12.00
2018-09-14T05:02:28.893Z,12.10
2018-09-14T05:04:59.377Z,12.10
2018-09-14T05:07:29.353Z,12.00
2018-09-14T05:11:02.304Z,12.00
2018-09-14T05:13:32.070Z,12.10
2018-09-14T05:16:01.489Z,12.10
2018-09-14T05:18:31.265Z,12.10
2018-09-14T05:21:01.289Z,12.10
2018-09-14T05:23:30.759Z,12.20
2018-09-14T05:26:00.467Z,12.20
2018-09-14T05:28:30.442Z,12.20
2018-09-14T05:30:59.964Z,12.20
2018-09-14T05:33:29.512Z,12.20
2018-09-14T05:35:59.521Z,12.20
2018-09-14T05:38:29.575Z,12.30
2018-09-14T05:40:59.667Z,12.30
2018-09-14T05:43:29.624Z,12.30
2018-09-14T05:45:59.724Z,12.30
2018-09-14T05:48:29.479Z,12.30
2018-09-14T05:50:59.829Z,12.30
2018-09-14T05:53:29.357Z,12.30
2018-09-14T05:55:58.896Z,12.30
2018-09-14T05:58:29.093Z,12.40
2018-09-14T06:00:59.161Z,12.40
2018-09-14T06:03:28.910Z,12.40
2018-09-14T06:06:00.168Z,12.40
2018-09-14T06:08:29.762Z,12.40
2018-09-14T06:10:59.332Z,12.40
2018-09-14T06:13:29.132Z,12.40
2018-09-14T06:15:58.792Z,12.40
2018-09-14T06:18:28.309Z,12.50
2018-09-14T06:20:58.314Z,12.50
2018-09-14T06:23:27.966Z,12.50
2018-09-14T06:25:57.909Z,12.50
2018-09-14T06:28:27.702Z,12.50
2018-09-14T06:30:57.229Z,12.60
2018-09-14T06:33:26.864Z,12.60
2018-09-14T06:35:56.581Z,12.60
2018-09-14T06:38:26.346Z,12.60
2018-09-14T06:40:55.946Z,12.60
2018-09-14T06:43:25.875Z,12.60
2018-09-14T06:45:56.181Z,12.60
2018-09-14T06:48:26.813Z,12.60
2018-09-14T06:50:56.960Z,12.60
2018-09-14T06:53:26.622Z,12.60
2018-09-14T06:55:56.518Z,12.60
2018-09-14T06:58:26.708Z,12.70
2018-09-14T07:00:56.293Z,12.70
2018-09-14T07:03:25.981Z,12.70
2018-09-14T07:05:55.431Z,12.80
2018-09-14T07:08:25.731Z,12.80
2018-09-14T07:10:55.322Z,12.80
2018-09-14T07:13:25.404Z,12.80
2018-09-14T07:15:54.904Z,12.80
2018-09-14T07:18:24.446Z,12.80
2018-09-14T07:20:54.736Z,12.90
2018-09-14T07:23:24.189Z,12.90
2018-09-14T07:25:53.626Z,12.90
2018-09-14T07:28:23.470Z,12.90
2018-09-14T07:30:52.984Z,13.00
2018-09-14T07:33:22.321Z,13.00
2018-09-14T07:35:52.068Z,13.00
2018-09-14T07:38:21.559Z,13.00
2018-09-14T07:40:51.165Z,13.10
2018-09-14T07:43:20.836Z,13.10
2018-09-14T07:45:50.256Z,13.10
2018-09-14T07:48:19.866Z,13.10
2018-09-14T07:50:49.677Z,13.10
2018-09-14T07:53:19.054Z,13.20
2018-09-14T07:55:48.354Z,13.20
2018-09-14T07:58:17.815Z,13.20
2018-09-14T08:00:47.593Z,13.30
2018-09-14T08:03:17.132Z,13.30
2018-09-14T08:05:50.419Z,13.30
2018-09-14T08:08:20.690Z,13.40
2018-09-14T08:10:50.382Z,13.40
2018-09-14T08:13:20.090Z,13.40
2018-09-14T08:15:49.534Z,13.40
2018-09-14T08:18:21.967Z,13.50
2018-09-14T08:20:51.627Z,13.50
2018-09-14T08:23:21.064Z,13.50
2018-09-14T08:26:04.938Z,13.60
2018-09-14T08:28:34.414Z,13.60
2018-09-14T08:31:26.901Z,13.60
2018-09-14T08:33:56.636Z,13.70
2018-09-14T08:36:26.512Z,13.70
2018-09-14T08:39:19.249Z,13.70
2018-09-14T08:41:49.071Z,13.70
2018-09-14T08:44:20.843Z,13.70
2018-09-14T08:46:50.422Z,13.70
2018-09-14T08:49:20.163Z,13.70
2018-09-14T08:51:50.588Z,13.70
2018-09-14T08:54:20.200Z,13.70
2018-09-14T08:56:49.820Z,13.80
2018-09-14T08:59:20.093Z,13.80
2018-09-14T09:01:49.641Z,13.80
2018-09-14T09:04:19.286Z,13.80
2018-09-14T09:06:49.076Z,13.90
2018-09-14T09:09:18.613Z,13.90
2018-09-14T09:11:48.600Z,13.90
2018-09-14T09:14:18.477Z,14.00
2018-09-14T09:16:47.966Z,14.00
2018-09-14T09:19:17.741Z,14.00
2018-09-14T09:21:47.620Z,14.10
2018-09-14T09:24:17.381Z,14.10
2018-09-14T09:26:47.336Z,14.10
2018-09-14T09:29:17.577Z,14.20
2018-09-14T09:31:48.271Z,14.20
2018-09-14T09:34:18.155Z,14.20
2018-09-14T09:36:48.043Z,14.30
2018-09-14T09:39:17.620Z,14.30
2018-09-14T09:41:47.607Z,14.40
2018-09-14T09:44:17.459Z,14.40
2018-09-14T09:46:47.094Z,14.50
2018-09-14T09:49:16.737Z,14.50
2018-09-14T09:51:46.881Z,14.60
2018-09-14T09:54:16.550Z,14.60
2018-09-14T09:56:46.280Z,14.60
2018-09-14T09:59:16.885Z,14.60
2018-09-14T10:01:51.601Z,14.70
2018-09-14T10:05:25.139Z,14.70
2018-09-14T10:07:55.330Z,14.80
2018-09-14T10:10:26.139Z,14.90
2018-09-14T10:12:55.804Z,14.90
2018-09-14T10:15:25.657Z,15.00
2018-09-14T10:17:55.770Z,15.00
2018-09-14T10:20:25.556Z,15.00
2018-09-14T10:22:55.462Z,15.00
2018-09-14T10:25:25.955Z,15.00
2018-09-14T10:27:56.078Z,15.00
2018-09-14T10:30:25.834Z,15.10
2018-09-14T10:32:55.856Z,15.10
2018-09-14T10:36:14.845Z,15.10
2018-09-14T10:38:44.723Z,15.20
2018-09-14T10:41:14.114Z,15.20
2018-09-14T10:43:43.726Z,15.30
2018-09-14T10:46:13.393Z,15.30
2018-09-14T10:48:42.791Z,15.30
2018-09-14T10:51:12.147Z,15.30
2018-09-14T10:53:42.004Z,15.30
2018-09-14T10:56:11.449Z,15.30
2018-09-14T10:58:43.609Z,15.30
2018-09-14T11:01:15.131Z,15.30
2018-09-14T11:03:44.844Z,15.30
2018-09-14T11:06:15.159Z,15.40
2018-09-14T11:08:44.482Z,15.40
2018-09-14T11:11:13.997Z,15.50
2018-09-14T11:13:43.707Z,15.50
2018-09-14T11:16:13.071Z,15.50
2018-09-14T11:18:42.688Z,15.50
2018-09-14T11:21:12.092Z,15.50
2018-09-14T11:23:41.524Z,15.60
2018-09-14T11:26:11.128Z,15.60
2018-09-14T11:28:40.622Z,15.60
2018-09-14T11:31:09.995Z,15.60
2018-09-14T11:33:39.558Z,15.60
2018-09-14T11:36:09.161Z,15.70
2018-09-14T11:38:38.783Z,15.70
2018-09-14T11:41:08.780Z,15.70
2018-09-14T11:43:38.459Z,15.80
2018-09-14T11:46:08.250Z,15.80
2018-09-14T11:48:37.927Z,15.80
2018-09-14T11:51:07.671Z,15.80
2018-09-14T11:53:37.466Z,15.90
2018-09-14T11:56:07.152Z,15.90
2018-09-14T11:58:36.771Z,15.90
2018-09-14T12:01:06.195Z,15.90
2018-09-14T12:03:36.216Z,15.90
2018-09-14T12:06:05.577Z,15.90
2018-09-14T12:08:34.981Z,15.90
2018-09-14T12:11:05.045Z,16.00
2018-09-14T12:13:34.826Z,16.00
2018-09-14T12:16:04.397Z,16.00
2018-09-14T12:18:33.968Z,16.20
2018-09-14T12:21:03.507Z,16.20
2018-09-14T12:23:33.186Z,16.30
2018-09-14T12:26:02.893Z,16.40
2018-09-14T12:28:32.331Z,16.50
2018-09-14T12:31:02.003Z,16.60
2018-09-14T12:33:31.648Z,16.70
2018-09-14T12:36:01.260Z,16.70
2018-09-14T12:38:30.566Z,16.80
2018-09-14T12:41:00.368Z,16.80
2018-09-14T12:43:29.820Z,16.80
2018-09-14T12:45:59.615Z,16.70
2018-09-14T12:48:29.772Z,16.80
2018-09-14T12:51:00.284Z,16.70
2018-09-14T12:53:29.637Z,16.70
2018-09-14T12:55:59.354Z,16.60
2018-09-14T12:58:29.718Z,16.60
2018-09-14T13:00:59.467Z,16.60
2018-09-14T13:03:29.558Z,16.60
2018-09-14T13:05:59.067Z,16.50
2018-09-14T13:08:28.906Z,16.50
2018-09-14T13:10:59.830Z,16.50
2018-09-14T13:13:29.430Z,16.50
2018-09-14T13:16:01.278Z,16.40
2018-09-14T13:18:30.738Z,16.40
2018-09-14T13:21:00.494Z,16.40
2018-09-14T13:23:29.943Z,16.40
2018-09-14T13:26:00.121Z,16.30
2018-09-14T13:28:29.305Z,16.40
2018-09-14T13:30:59.802Z,16.40
2018-09-14T13:33:29.504Z,16.30
2018-09-14T13:36:00.082Z,16.30
2018-09-14T13:38:29.841Z,16.30
2018-09-14T13:41:00.298Z,16.30
2018-09-14T13:43:29.925Z,16.30
2018-09-14T13:45:59.715Z,16.30
2018-09-14T13:48:30.022Z,16.30
2018-09-14T13:50:59.514Z,16.20
2018-09-14T13:53:30.721Z,16.30
2018-09-14T13:56:00.320Z,16.30
2018-09-14T13:58:29.726Z,16.30
2018-09-14T14:00:59.648Z,16.30
2018-09-14T14:03:29.365Z,16.30
2018-09-14T14:05:59.205Z,16.20
2018-09-14T14:08:30.226Z,16.20
2018-09-14T14:10:59.671Z,16.20
2018-09-14T14:13:31.011Z,16.20
2018-09-14T14:16:00.961Z,16.30
2018-09-14T14:18:30.987Z,16.30
2018-09-14T14:21:03.008Z,16.30
2018-09-14T14:23:32.705Z,16.30
2018-09-14T14:26:02.397Z,16.30
2018-09-14T14:28:31.757Z,16.40
2018-09-14T14:31:01.549Z,16.50
2018-09-14T14:33:30.987Z,16.60
2018-09-14T14:36:00.519Z,16.60
2018-09-14T14:38:30.458Z,16.60
2018-09-14T14:40:59.898Z,16.60
2018-09-14T14:43:29.439Z,16.60
2018-09-14T14:45:59.375Z,16.60
2018-09-14T14:48:29.016Z,16.60
2018-09-14T14:50:59.188Z,16.60
2018-09-14T14:53:29.082Z,16.70
2018-09-14T14:55:58.997Z,16.70
2018-09-14T14:58:28.734Z,16.70
2018-09-14T15:00:58.634Z,16.70
2018-09-14T15:03:28.508Z,16.70
2018-09-14T15:05:58.000Z,16.70
2018-09-14T15:08:28.153Z,16.60
2018-09-14T15:10:57.842Z,16.60
2018-09-14T15:13:27.693Z,16.60
2018-09-14T15:15:57.534Z,16.60
2018-09-14T15:18:27.345Z,16.60
2018-09-14T15:20:57.033Z,16.60
2018-09-14T15:23:27.284Z,16.60
2018-09-14T15:25:56.989Z,16.60
2018-09-14T15:28:26.775Z,16.60
2018-09-14T15:30:56.729Z,16.60
2018-09-14T15:33:26.531Z,16.60
2018-09-14T15:35:56.337Z,16.60
2018-09-14T15:38:26.033Z,16.60
2018-09-14T15:40:55.570Z,16.60
2018-09-14T15:46:01.759Z,16.50
2018-09-14T15:48:31.091Z,16.60
2018-09-14T15:51:00.890Z,16.50
2018-09-14T15:53:30.849Z,16.60
2018-09-14T15:56:00.211Z,16.60
2018-09-14T15:58:29.829Z,16.50
2018-09-14T16:00:59.879Z,16.50
2018-09-14T16:03:29.701Z,16.50
2018-09-14T16:05:59.687Z,16.60
2018-09-14T16:08:29.671Z,16.50
2018-09-14T16:10:59.287Z,16.50
2018-09-14T16:13:30.045Z,16.50
2018-09-14T16:15:59.850Z,16.50
2018-09-14T16:18:29.406Z,16.50
2018-09-14T16:20:59.380Z,16.60
2018-09-14T16:23:29.223Z,16.50
2018-09-14T16:25:58.773Z,16.60
2018-09-14T16:28:28.501Z,16.60
2018-09-14T16:30:58.225Z,16.50
2018-09-14T16:33:27.950Z,16.60
2018-09-14T16:35:57.522Z,16.50
2018-09-14T16:38:28.687Z,16.50
2018-09-14T16:40:58.646Z,16.50
2018-09-14T16:43:28.464Z,16.50
2018-09-14T16:45:58.401Z,16.50
2018-09-14T16:48:28.676Z,16.50
2018-09-14T16:50:58.903Z,16.50
2018-09-14T16:53:33.220Z,16.50
2018-09-14T16:56:03.969Z,16.50
2018-09-14T16:58:34.122Z,16.50
2018-09-14T17:01:12.965Z,16.40
2018-09-14T17:07:04.758Z,16.40
2018-09-14T17:09:34.367Z,16.40
2018-09-14T17:12:24.852Z,16.40
2018-09-14T17:14:59.820Z,16.40
2018-09-14T17:20:51.916Z,16.30
2018-09-14T17:26:42.732Z,16.30
2018-09-14T17:29:12.179Z,16.30
2018-09-14T17:31:41.660Z,16.20
2018-09-14T17:34:11.790Z,16.20
2018-09-14T17:36:41.381Z,16.20
2018-09-14T17:39:11.436Z,16.20
2018-09-14T17:41:41.509Z,16.20
2018-09-14T17:44:11.190Z,16.20
2018-09-14T17:46:41.005Z,16.20
2018-09-14T17:49:11.050Z,16.10
2018-09-14T17:58:34.695Z,16.10
2018-09-14T18:01:16.511Z,16.10
2018-09-14T18:04:21.651Z,16.10
2018-09-14T18:06:51.419Z,16.10
2018-09-14T18:09:20.858Z,16.10
2018-09-14T18:11:50.530Z,16.10
2018-09-14T18:14:20.196Z,16.10
2018-09-14T18:16:49.745Z,16.00
2018-09-14T18:19:19.565Z,16.00
2018-09-14T18:21:49.177Z,16.00
2018-09-14T18:24:19.332Z,16.00
2018-09-14T18:26:48.832Z,16.00
2018-09-14T18:29:18.545Z,16.00
2018-09-14T18:31:48.263Z,16.00
2018-09-14T18:34:18.078Z,16.00
2018-09-14T18:36:47.626Z,16.00
2018-09-14T18:39:17.276Z,16.00
2018-09-14T18:41:47.450Z,16.00
2018-09-14T18:44:44.105Z,15.90
2018-09-14T18:47:14.556Z,15.90
2018-09-14T18:49:44.295Z,15.90
2018-09-14T18:52:14.086Z,15.90
2018-09-14T18:55:04.784Z,15.90
2018-09-14T18:57:34.395Z,15.90
2018-09-14T19:00:04.058Z,15.90
2018-09-14T19:02:33.684Z,15.90
2018-09-14T19:05:03.301Z,15.90
2018-09-14T19:07:32.678Z,15.90
2018-09-14T19:10:02.290Z,15.90
2018-09-14T19:12:31.830Z,15.90
2018-09-14T19:15:01.535Z,15.90
2018-09-14T19:17:31.125Z,15.90
2018-09-14T19:20:00.734Z,15.80
2018-09-14T19:22:30.216Z,15.80
2018-09-14T19:25:00.115Z,15.80
2018-09-14T19:27:29.581Z,15.80
2018-09-14T19:29:59.254Z,15.80
2018-09-14T19:32:30.206Z,15.70
2018-09-14T19:34:59.729Z,15.80
2018-09-14T19:37:29.356Z,15.70
2018-09-14T19:39:59.795Z,15.70
2018-09-14T19:42:29.589Z,15.80
2018-09-14T19:44:59.653Z,15.80
2018-09-14T19:47:30.638Z,15.70
2018-09-14T19:50:00.087Z,15.70
2018-09-14T19:52:29.558Z,15.80
2018-09-14T19:54:59.577Z,15.70
2018-09-14T20:00:50.448Z,15.70
2018-09-14T20:03:20.073Z,15.70
2018-09-14T20:05:49.711Z,15.70
2018-09-14T20:08:19.243Z,15.70
2018-09-14T20:10:48.778Z,15.70
2018-09-14T20:13:18.381Z,15.70
2018-09-14T20:15:47.991Z,15.70
2018-09-14T20:18:17.600Z,15.70
2018-09-14T20:20:47.872Z,15.70
2018-09-14T20:23:17.714Z,15.70
2018-09-14T20:25:47.239Z,15.70
2018-09-14T20:28:16.763Z,15.70
2018-09-14T20:30:46.822Z,15.70
2018-09-14T20:33:16.628Z,15.70
2018-09-14T20:35:46.329Z,15.70
2018-09-14T20:38:16.247Z,15.60
2018-09-14T20:40:45.872Z,15.60
2018-09-14T20:43:15.511Z,15.60
2018-09-14T20:45:45.253Z,15.60
2018-09-14T20:48:14.846Z,15.60
2018-09-14T20:54:05.592Z,15.60
2018-09-14T20:56:35.037Z,15.60
2018-09-14T20:59:04.459Z,15.60
2018-09-14T21:01:34.190Z,15.50
2018-09-14T21:04:03.529Z,15.50
2018-09-14T21:06:33.063Z,15.50
2018-09-14T21:09:02.677Z,15.50
2018-09-14T21:11:32.162Z,15.40
2018-09-14T21:14:01.704Z,15.40
2018-09-14T21:16:31.620Z,15.40
2018-09-14T21:19:01.062Z,15.30
2018-09-14T21:21:30.876Z,15.30
2018-09-14T21:24:00.458Z,15.30
2018-09-14T21:26:29.913Z,15.30
2018-09-14T21:28:59.483Z,15.20
2018-09-14T21:31:29.361Z,15.20
2018-09-14T21:33:58.949Z,15.20
2018-09-14T21:36:29.370Z,15.20
2018-09-14T21:38:59.693Z,15.20
2018-09-14T21:41:29.351Z,15.20
2018-09-14T21:43:59.127Z,15.20
2018-09-14T21:46:29.246Z,15.10
2018-09-14T21:48:59.467Z,15.10
2018-09-14T21:51:30.565Z,15.10
2018-09-14T21:54:00.155Z,15.00
2018-09-14T21:56:29.725Z,15.00
2018-09-14T21:58:59.824Z,15.00
2018-09-14T22:01:30.763Z,15.00
2018-09-14T22:04:01.178Z,15.00
2018-09-14T22:06:31.028Z,14.90
2018-09-14T22:09:00.505Z,14.90
2018-09-14T22:11:30.182Z,14.90
2018-09-14T22:13:59.591Z,14.90
2018-09-14T22:16:29.359Z,14.90
2018-09-14T22:19:00.005Z,14.90
2018-09-14T22:21:30.039Z,14.90
2018-09-14T22:23:59.750Z,14.90
2018-09-14T22:26:30.334Z,14.90
2018-09-14T22:28:59.934Z,14.90
2018-09-14T22:31:29.518Z,14.80
2018-09-14T22:33:59.693Z,14.80
2018-09-14T22:36:30.423Z,14.80
2018-09-14T22:39:00.080Z,14.80
2018-09-14T22:41:30.056Z,14.70
2018-09-14T22:44:11.041Z,14.70
2018-09-14T22:46:40.916Z,14.70
2018-09-14T22:49:10.444Z,14.70
2018-09-14T22:51:40.323Z,14.60
2018-09-14T22:54:10.111Z,14.60
2018-09-14T22:56:39.590Z,14.60
2018-09-14T22:59:09.187Z,14.60
2018-09-14T23:01:38.827Z,14.60
2018-09-14T23:04:09.814Z,14.50
2018-09-14T23:06:41.023Z,14.50
2018-09-14T23:09:18.432Z,14.50
2018-09-14T23:11:49.188Z,14.50
2018-09-14T23:14:18.674Z,14.50
2018-09-14T23:27:28.692Z,14.50
2018-09-14T23:30:07.245Z,14.40
2018-09-14T23:39:33.602Z,14.40
2018-09-14T23:45:24.742Z,14.40
2018-09-14T23:50:56.776Z,14.40
2018-09-14T23:56:47.410Z,14.40
2018-09-14T23:59:17.044Z,14.40
